Observation data for Saint Lawrence on 08/09/2020      Previous  Date  Next       Current Mesonet Observations  Soil Data  Daily Summary Page  Observations in Plain Language
KST1 090500Z 15008KT 28/14 A3011 RMK A01 T02790138  RH  043%=      5-min Rain = 0
KST1 090505Z 16008KT 28/14 A3011 RMK A01 T02780138  RH  043%=      5-min Rain = 0
KST1 090510Z 16008KT 28/14 A3011 RMK A01 T02760138  RH  044%=      5-min Rain = 0
KST1 090515Z 16009KT 28/14 A3011 RMK A01 T02750138  RH  044%=      5-min Rain = 0
KST1 090520Z 16008KT 28/14 A3011 RMK A01 T02750138  RH  044%=      5-min Rain = 0
KST1 090525Z 16009KT 27/14 A3011 RMK A01 T02730137  RH  044%=      5-min Rain = 0
KST1 090530Z 16009KT 28/14 A3011 RMK A01 T02750138  RH  044%=      5-min Rain = 0
KST1 090535Z 16008KT 27/14 A3011 RMK A01 T02730138  RH  044%=      5-min Rain = 0
KST1 090540Z 16009KT 27/14 A3011 RMK A01 T02730139  RH  045%=      5-min Rain = 0
KST1 090545Z 16009KT 27/14 A3011 RMK A01 T02730139  RH  045%=      5-min Rain = 0
KST1 090550Z 16008KT 27/14 A3011 RMK A01 T02710139  RH  045%=      5-min Rain = 0
KST1 090555Z 16008KT 27/14 A3011 RMK A01 T02700139  RH  045%=      5-min Rain = 0
KST1 090600Z 16009KT 27/14 A301 RMK A01 T02700140  RH  046%=      5-min Rain = 0
KST1 090605Z 16009KT 27/14 A301 RMK A01 T02680140  RH  046%=      5-min Rain = 0
KST1 090610Z 16009KT 27/14 A301 RMK A01 T02680140  RH  046%=      5-min Rain = 0
KST1 090615Z 16010KT 27/14 A301 RMK A01 T02690142  RH  046%=      5-min Rain = 0
KST1 090620Z 16010KT 27/14 A301 RMK A01 T02690143  RH  047%=      5-min Rain = 0
KST1 090625Z 16009KT 27/14 A301 RMK A01 T02680143  RH  047%=      5-min Rain = 0
KST1 090630Z 16010KT 27/14 A301 RMK A01 T02670144  RH  048%=      5-min Rain = 0
KST1 090635Z 16009KT 27/14 A301 RMK A01 T02670144  RH  048%=      5-min Rain = 0
KST1 090640Z 16009KT 27/15 A3009 RMK A01 T02670145  RH  048%=      5-min Rain = 0
KST1 090645Z 16008KT 27/15 A301 RMK A01 T02660145  RH  048%=      5-min Rain = 0
KST1 090650Z 16009KT 27/15 A3009 RMK A01 T02650146  RH  049%=      5-min Rain = 0
KST1 090655Z 16009KT 26/15 A3009 RMK A01 T02640146  RH  049%=      5-min Rain = 0
KST1 090700Z 16009KT 26/15 A3009 RMK A01 T02630146  RH  049%=      5-min Rain = 0
KST1 090705Z 15009KT 26/15 A3009 RMK A01 T02620146  RH  050%=      5-min Rain = 0
KST1 090710Z 15010KT 26/15 A3009 RMK A01 T02600145  RH  050%=      5-min Rain = 0
KST1 090715Z 15010KT 26/15 A3009 RMK A01 T02590145  RH  051%=      5-min Rain = 0
KST1 090720Z 15012KT 26/15 A3009 RMK A01 T02610148  RH  051%=      5-min Rain = 0
KST1 090725Z 16013KT 26/15 A3009 RMK A01 T02630150  RH  051%=      5-min Rain = 0
KST1 090730Z 16013G19KT 27/15 A3009 RMK A01 T02650152  RH  051%=      5-min Rain = 0
KST1 090735Z 16014KT 27/15 A3009 RMK A01 T02650154  RH  052%=      5-min Rain = 0
KST1 090740Z 16013G18KT 27/16 A3009 RMK A01 T02650156  RH  052%=      5-min Rain = 0
KST1 090745Z 16013KT 27/16 A3009 RMK A01 T02650157  RH  053%=      5-min Rain = 0
KST1 090750Z 16012KT 27/16 A3009 RMK A01 T02650158  RH  053%=      5-min Rain = 0
KST1 090755Z 16013KT 26/16 A3009 RMK A01 T02630159  RH  054%=      5-min Rain = 0
KST1 090800Z 16014KT 26/16 A3009 RMK A01 T02630160  RH  054%=      5-min Rain = 0
KST1 090805Z 16012KT 26/16 A3009 RMK A01 T02620160  RH  055%=      5-min Rain = 0
KST1 090810Z 16012KT 26/16 A3009 RMK A01 T02610161  RH  055%=      5-min Rain = 0
KST1 090815Z 16012KT 26/16 A3009 RMK A01 T02610162  RH  056%=      5-min Rain = 0
KST1 090820Z 16011KT 26/16 A3008 RMK A01 T02600164  RH  057%=      5-min Rain = 0
KST1 090825Z 17013KT 26/17 A3008 RMK A01 T02600166  RH  058%=      5-min Rain = 0
KST1 090830Z 17013KT 26/17 A3008 RMK A01 T02590169  RH  059%=      5-min Rain = 0
KST1 090835Z 17013KT 26/17 A3008 RMK A01 T02590171  RH  060%=      5-min Rain = 0
KST1 090840Z 17012KT 26/17 A3008 RMK A01 T02580173  RH  061%=      5-min Rain = 0
KST1 090845Z 17013KT 26/18 A3008 RMK A01 T02580175  RH  062%=      5-min Rain = 0
KST1 090850Z 17013KT 26/18 A3008 RMK A01 T02580177  RH  062%=      5-min Rain = 0
KST1 090855Z 17012KT 26/18 A3008 RMK A01 T02570177  RH  063%=      5-min Rain = 0
KST1 090900Z 16014G21KT 26/18 A3008 RMK A01 T02570179  RH  063%=      5-min Rain = 0
KST1 090905Z 17015G20KT 26/18 A3008 RMK A01 T02570181  RH  064%=      5-min Rain = 0
KST1 090910Z 17016G21KT 26/18 A3008 RMK A01 T02570182  RH  065%=      5-min Rain = 0
KST1 090915Z 17014G19KT 26/18 A3008 RMK A01 T02560182  RH  065%=      5-min Rain = 0
KST1 090920Z 16013G20KT 25/18 A3008 RMK A01 T02540181  RH  066%=      5-min Rain = 0
KST1 090925Z 17013KT 25/18 A3008 RMK A01 T02540181  RH  066%=      5-min Rain = 0
KST1 090930Z 17015KT 25/18 A3007 RMK A01 T02530183  RH  067%=      5-min Rain = 0
KST1 090935Z 17015KT 25/18 A3007 RMK A01 T02530184  RH  067%=      5-min Rain = 0
KST1 090940Z 16015KT 25/18 A3007 RMK A01 T02520184  RH  068%=      5-min Rain = 0
KST1 090945Z 16013KT 25/18 A3007 RMK A01 T02510184  RH  068%=      5-min Rain = 0
KST1 090950Z 16012KT 25/18 A3007 RMK A01 T02500183  RH  068%=      5-min Rain = 0
KST1 090955Z 16013KT 25/18 A3008 RMK A01 T02490184  RH  069%=      5-min Rain = 0
KST1 091000Z 16013KT 25/18 A3008 RMK A01 T02490184  RH  069%=      5-min Rain = 0
KST1 091005Z 16012KT 25/18 A3007 RMK A01 T02480184  RH  069%=      5-min Rain = 0
KST1 091010Z 16013KT 25/18 A3007 RMK A01 T02470184  RH  070%=      5-min Rain = 0
KST1 091015Z 16014KT 25/19 A3007 RMK A01 T02470185  RH  070%=      5-min Rain = 0
KST1 091020Z 16014KT 25/19 A3007 RMK A01 T02460186  RH  071%=      5-min Rain = 0
KST1 091025Z 16013KT 25/19 A3007 RMK A01 T02460186  RH  071%=      5-min Rain = 0
KST1 091030Z 16013KT 25/19 A3007 RMK A01 T02450186  RH  071%=      5-min Rain = 0
KST1 091035Z 16013KT 24/19 A3007 RMK A01 T02440186  RH  072%=      5-min Rain = 0
KST1 091040Z 16013KT 24/19 A3007 RMK A01 T02440186  RH  072%=      5-min Rain = 0
KST1 091045Z 16013KT 24/19 A3007 RMK A01 T02430186  RH  072%=      5-min Rain = 0
KST1 091050Z 16013KT 24/19 A3008 RMK A01 T02430187  RH  073%=      5-min Rain = 0
KST1 091055Z 16012G17KT 24/19 A3008 RMK A01 T02430187  RH  073%=      5-min Rain = 0
KST1 091100Z 16013KT 24/19 A3008 RMK A01 T02420187  RH  073%=      5-min Rain = 0
KST1 091105Z 15011KT 24/19 A3008 RMK A01 T02410187  RH  074%=      5-min Rain = 0
KST1 091110Z 15012KT 24/19 A3008 RMK A01 T02410188  RH  074%=      5-min Rain = 0
KST1 091115Z 15012KT 24/19 A3008 RMK A01 T02400188  RH  074%=      5-min Rain = 0
KST1 091120Z 15013KT 24/19 A3008 RMK A01 T02390188  RH  075%=      5-min Rain = 0
KST1 091125Z 15013KT 24/19 A3008 RMK A01 T02390189  RH  075%=      5-min Rain = 0
KST1 091130Z 15013KT 24/19 A3008 RMK A01 T02380189  RH  076%=      5-min Rain = 0
KST1 091135Z 15013KT 24/19 A3008 RMK A01 T02380189  RH  076%=      5-min Rain = 0
KST1 091140Z 15014KT 24/19 A3008 RMK A01 T02370190  RH  077%=      5-min Rain = 0
KST1 091145Z 15013KT 24/19 A3008 RMK A01 T02370190  RH  077%=      5-min Rain = 0
KST1 091150Z 15012KT 24/19 A3009 RMK A01 T02360190  RH  077%=      5-min Rain = 0
KST1 091155Z 15012KT 24/19 A3008 RMK A01 T02350190  RH  078%=      5-min Rain = 0
KST1 091200Z 15014KT 24/19 A3008 RMK A01 T02350191  RH  078%=      5-min Rain = 0
KST1 091205Z 16014KT 24/19 A3009 RMK A01 T02360192  RH  078%=      5-min Rain = 0
KST1 091210Z 16012KT 24/19 A3009 RMK A01 T02350191  RH  079%=      5-min Rain = 0
KST1 091215Z 15012KT 23/19 A3009 RMK A01 T02340192  RH  079%=      5-min Rain = 0
KST1 091220Z 16011KT 23/19 A301 RMK A01 T02340192  RH  079%=      5-min Rain = 0
KST1 091225Z 15011KT 23/19 A301 RMK A01 T02340192  RH  079%=      5-min Rain = 0
KST1 091230Z 15010KT 23/19 A301 RMK A01 T02340192  RH  079%=      5-min Rain = 0
KST1 091235Z 15011KT 23/19 A3011 RMK A01 T02340193  RH  080%=      5-min Rain = 0
KST1 091240Z 15011KT 23/19 A3011 RMK A01 T02340193  RH  080%=      5-min Rain = 0
KST1 091245Z 15011KT 24/19 A3011 RMK A01 T02350193  RH  079%=      5-min Rain = 0
KST1 091250Z 15012KT 24/19 A3011 RMK A01 T02360194  RH  079%=      5-min Rain = 0
KST1 091255Z 15012KT 24/19 A3011 RMK A01 T02370194  RH  079%=      5-min Rain = 0
KST1 091300Z 15013G18KT 24/19 A3011 RMK A01 T02380194  RH  079%=      5-min Rain = 0
KST1 091305Z 15013KT 24/20 A3011 RMK A01 T02390195  RH  078%=      5-min Rain = 0
KST1 091310Z 15012KT 24/20 A3011 RMK A01 T02400195  RH  078%=      5-min Rain = 0
KST1 091315Z 14012G17KT 24/20 A3011 RMK A01 T02410195  RH  078%=      5-min Rain = 0
KST1 091320Z 15015KT 24/20 A3011 RMK A01 T02410195  RH  077%=      5-min Rain = 0
KST1 091325Z 16014KT 24/20 A3012 RMK A01 T02420195  RH  077%=      5-min Rain = 0
KST1 091330Z 16016KT 24/20 A3012 RMK A01 T02430195  RH  077%=      5-min Rain = 0
KST1 091335Z 16015G20KT 25/20 A3012 RMK A01 T02450195  RH  076%=      5-min Rain = 0
KST1 091340Z 16016KT 25/20 A3012 RMK A01 T02470195  RH  075%=      5-min Rain = 0
KST1 091345Z 16015G20KT 25/20 A3012 RMK A01 T02470195  RH  075%=      5-min Rain = 0
KST1 091350Z 16016KT 25/20 A3012 RMK A01 T02470195  RH  075%=      5-min Rain = 0
KST1 091355Z 16015G20KT 25/20 A3012 RMK A01 T02500195  RH  073%=      5-min Rain = 0
KST1 091400Z 16017KT 25/19 A3012 RMK A01 T02510194  RH  073%=      5-min Rain = 0
KST1 091405Z 16016KT 25/19 A3012 RMK A01 T02510194  RH  073%=      5-min Rain = 0
KST1 091410Z 16016KT 25/19 A3012 RMK A01 T02520194  RH  072%=      5-min Rain = 0
KST1 091415Z 16016KT 25/19 A3012 RMK A01 T02540194  RH  071%=      5-min Rain = 0
KST1 091420Z 17015KT 26/19 A3012 RMK A01 T02570194  RH  070%=      5-min Rain = 0
KST1 091425Z 16017KT 26/19 A3012 RMK A01 T02580194  RH  070%=      5-min Rain = 0
KST1 091430Z 16017KT 26/19 A3012 RMK A01 T02600194  RH  069%=      5-min Rain = 0
KST1 091435Z 16017KT 26/20 A3012 RMK A01 T02600195  RH  069%=      5-min Rain = 0
KST1 091440Z 17017KT 26/19 A3012 RMK A01 T02640194  RH  067%=      5-min Rain = 0
KST1 091445Z 16017KT 27/19 A3012 RMK A01 T02650194  RH  067%=      5-min Rain = 0
KST1 091450Z 16017KT 27/19 A3012 RMK A01 T02690194  RH  065%=      5-min Rain = 0
KST1 091455Z 17017G22KT 27/19 A3012 RMK A01 T02710193  RH  064%=      5-min Rain = 0
KST1 091500Z 16016G22KT 27/20 A3012 RMK A01 T02740195  RH  064%=      5-min Rain = 0
KST1 091505Z 16018KT 27/19 A3012 RMK A01 T02730193  RH  063%=      5-min Rain = 0
KST1 091510Z 17018KT 28/19 A3012 RMK A01 T02750193  RH  062%=      5-min Rain = 0
KST1 091515Z 17015KT 28/19 A3012 RMK A01 T02790193  RH  061%=      5-min Rain = 0
KST1 091520Z 16015G21KT 28/19 A3012 RMK A01 T02830193  RH  060%=      5-min Rain = 0
KST1 091525Z 17016G21KT 29/19 A3012 RMK A01 T02860191  RH  058%=      5-min Rain = 0
KST1 091530Z 16017G22KT 29/19 A3012 RMK A01 T02870191  RH  058%=      5-min Rain = 0
KST1 091535Z 16017KT 29/19 A3012 RMK A01 T02860190  RH  058%=      5-min Rain = 0
KST1 091540Z 17017G22KT 29/19 A3012 RMK A01 T02890189  RH  056%=      5-min Rain = 0
KST1 091545Z 17016G21KT 29/19 A3012 RMK A01 T02890189  RH  056%=      5-min Rain = 0
KST1 091550Z 16018G24KT 29/19 A3012 RMK A01 T02910189  RH  055%=      5-min Rain = 0
KST1 091555Z 16019G24KT 29/19 A3012 RMK A01 T02930186  RH  054%=      5-min Rain = 0
KST1 091600Z 16017KT 29/19 A3012 RMK A01 T02930187  RH  054%=      5-min Rain = 0
KST1 091605Z 16017G22KT 30/19 A3012 RMK A01 T02950187  RH  054%=      5-min Rain = 0
KST1 091610Z 16018KT 30/19 A3012 RMK A01 T02980185  RH  052%=      5-min Rain = 0
KST1 091615Z 17016G21KT 30/18 A3012 RMK A01 T03020184  RH  050%=      5-min Rain = 0
KST1 091620Z 17017G23KT 31/18 A3012 RMK A01 T03050182  RH  049%=      5-min Rain = 0
KST1 091625Z 17017KT 31/18 A3012 RMK A01 T03060184  RH  050%=      5-min Rain = 0
KST1 091630Z 16016G21KT 31/18 A3012 RMK A01 T03100184  RH  048%=      5-min Rain = 0
KST1 091635Z 18018G25KT 31/18 A3012 RMK A01 T03090177  RH  046%=      5-min Rain = 0
KST1 091640Z 18017G25KT 31/18 A3012 RMK A01 T03090179  RH  047%=      5-min Rain = 0
KST1 091645Z 18019G27KT 31/18 A3012 RMK A01 T03090177  RH  046%=      5-min Rain = 0
KST1 091650Z 18017G29KT 31/18 A3012 RMK A01 T03130176  RH  045%=      5-min Rain = 0
KST1 091655Z 17016G21KT 31/18 A3012 RMK A01 T03140177  RH  045%=      5-min Rain = 0
KST1 091700Z 16017G22KT 32/18 A3012 RMK A01 T03150181  RH  046%=      5-min Rain = 0
KST1 091705Z 16019KT 32/18 A3011 RMK A01 T03170181  RH  046%=      5-min Rain = 0
KST1 091710Z 18018G23KT 32/18 A3011 RMK A01 T03180177  RH  044%=      5-min Rain = 0
KST1 091715Z 18015G20KT 32/18 A3011 RMK A01 T03180176  RH  044%=      5-min Rain = 0
KST1 091720Z 17017G22KT 32/18 A3011 RMK A01 T03240177  RH  043%=      5-min Rain = 0
KST1 091725Z 18017G22KT 32/18 A3011 RMK A01 T03240176  RH  042%=      5-min Rain = 0
KST1 091730Z 17017G24KT 33/18 A3011 RMK A01 T03260176  RH  042%=      5-min Rain = 0
KST1 091735Z 17017G24KT 33/18 A301 RMK A01 T03270176  RH  041%=      5-min Rain = 0
KST1 091740Z 16017G22KT 33/18 A301 RMK A01 T03300175  RH  041%=      5-min Rain = 0
KST1 091745Z 18018G23KT 33/17 A301 RMK A01 T03310173  RH  040%=      5-min Rain = 0
KST1 091750Z 16017G22KT 33/18 A301 RMK A01 T03290175  RH  041%=      5-min Rain = 0
KST1 091755Z 17016G23KT 33/17 A3009 RMK A01 T03320174  RH  040%=      5-min Rain = 0
KST1 091800Z 16015G21KT 33/17 A3009 RMK A01 T03330174  RH  040%=      5-min Rain = 0
KST1 091805Z 17019G26KT 33/17 A3009 RMK A01 T03340174  RH  040%=      5-min Rain = 0
KST1 091810Z 16016G21KT 33/17 A3009 RMK A01 T03330171  RH  039%=      5-min Rain = 0
KST1 091815Z 16016G22KT 33/17 A3009 RMK A01 T03340170  RH  038%=      5-min Rain = 0
KST1 091820Z 18016G24KT 34/17 A3009 RMK A01 T03350170  RH  038%=      5-min Rain = 0
KST1 091825Z 17017G23KT 34/17 A3008 RMK A01 T03350170  RH  038%=      5-min Rain = 0
KST1 091830Z 17016G21KT 34/17 A3008 RMK A01 T03410169  RH  037%=      5-min Rain = 0
KST1 091835Z 17017G22KT 34/16 A3008 RMK A01 T03400164  RH  036%=      5-min Rain = 0
KST1 091840Z 17016G22KT 34/16 A3008 RMK A01 T03380162  RH  036%=      5-min Rain = 0
KST1 091845Z 16015G23KT 34/17 A3007 RMK A01 T03410165  RH  036%=      5-min Rain = 0
KST1 091850Z 16017G23KT 34/16 A3007 RMK A01 T03430164  RH  035%=      5-min Rain = 0
KST1 091855Z 17016G22KT 35/17 A3007 RMK A01 T03460165  RH  035%=      5-min Rain = 0
KST1 091900Z 17014G22KT 34/16 A3007 RMK A01 T03440163  RH  035%=      5-min Rain = 0
KST1 091905Z 16015G22KT 35/17 A3007 RMK A01 T03460167  RH  035%=      5-min Rain = 0
KST1 091910Z 16017G22KT 35/17 A3007 RMK A01 T03460165  RH  035%=      5-min Rain = 0
KST1 091915Z 17017G23KT 35/17 A3007 RMK A01 T03460165  RH  035%=      5-min Rain = 0
KST1 091920Z 16018KT 35/16 A3006 RMK A01 T03480158  RH  033%=      5-min Rain = 0
KST1 091925Z 16015G20KT 35/16 A3006 RMK A01 T03470158  RH  033%=      5-min Rain = 0
KST1 091930Z 17013G20KT 35/16 A3006 RMK A01 T03470160  RH  034%=      5-min Rain = 0
KST1 091935Z 15017G23KT 35/16 A3006 RMK A01 T03470164  RH  034%=      5-min Rain = 0
KST1 091940Z 16016KT 35/16 A3005 RMK A01 T03480161  RH  034%=      5-min Rain = 0
KST1 091945Z 17015G21KT 35/16 A3005 RMK A01 T03530161  RH  033%=      5-min Rain = 0
KST1 091950Z 15018G23KT 35/16 A3005 RMK A01 T03490159  RH  033%=      5-min Rain = 0
KST1 091955Z 15016G23KT 35/16 A3005 RMK A01 T03460158  RH  033%=      5-min Rain = 0
KST1 092000Z 16015G22KT 35/15 A3005 RMK A01 T03500154  RH  032%=      5-min Rain = 0
KST1 092005Z 16015G21KT 35/16 A3004 RMK A01 T03500158  RH  033%=      5-min Rain = 0
KST1 092010Z 17015G22KT 36/15 A3004 RMK A01 T03560154  RH  031%=      5-min Rain = 0
KST1 092015Z 17014G19KT 35/15 A3004 RMK A01 T03510153  RH  031%=      5-min Rain = 0
KST1 092020Z 17018G23KT 36/15 A3004 RMK A01 T03560150  RH  030%=      5-min Rain = 0
KST1 092025Z 15012KT 36/15 A3004 RMK A01 T03550151  RH  030%=      5-min Rain = 0
KST1 092030Z 17016G24KT 35/15 A3004 RMK A01 T03530147  RH  030%=      5-min Rain = 0
KST1 092035Z 16014G23KT 35/15 A3004 RMK A01 T03520151  RH  031%=      5-min Rain = 0
KST1 092040Z 17015G22KT 36/15 A3003 RMK A01 T03570147  RH  029%=      5-min Rain = 0
KST1 092045Z 17014G22KT 36/15 A3003 RMK A01 T03560146  RH  029%=      5-min Rain = 0
KST1 092050Z 17016G24KT 36/15 A3003 RMK A01 T03610145  RH  028%=      5-min Rain = 0
KST1 092055Z 17016G21KT 36/14 A3003 RMK A01 T03610144  RH  028%=      5-min Rain = 0
KST1 092100Z 17015G21KT 36/15 A3003 RMK A01 T03590149  RH  029%=      5-min Rain = 0
KST1 092105Z 17016G21KT 36/15 A3002 RMK A01 T03560147  RH  029%=      5-min Rain = 0
KST1 092110Z 17015G20KT 36/14 A3002 RMK A01 T03570144  RH  029%=      5-min Rain = 0
KST1 092115Z 16016G24KT 36/14 A3002 RMK A01 T03580143  RH  028%=      5-min Rain = 0
KST1 092120Z 17013G18KT 36/14 A3002 RMK A01 T03600143  RH  028%=      5-min Rain = 0
KST1 092125Z 16016G22KT 36/14 A3002 RMK A01 T03620144  RH  028%=      5-min Rain = 0
KST1 092130Z 16015G23KT 36/15 A3002 RMK A01 T03600145  RH  028%=      5-min Rain = 0
KST1 092135Z 17016G25KT 36/14 A3002 RMK A01 T03630144  RH  028%=      5-min Rain = 0
KST1 092140Z 16016G22KT 36/14 A3002 RMK A01 T03610143  RH  028%=      5-min Rain = 0
KST1 092145Z 17015KT 36/14 A3001 RMK A01 T03600144  RH  028%=      5-min Rain = 0
KST1 092150Z 16017G22KT 36/14 A3001 RMK A01 T03620141  RH  027%=      5-min Rain = 0
KST1 092155Z 15014G20KT 36/14 A3001 RMK A01 T03590143  RH  028%=      5-min Rain = 0
KST1 092200Z 16018KT 36/14 A3001 RMK A01 T03620141  RH  027%=      5-min Rain = 0
KST1 092205Z 16016G25KT 36/14 A3001 RMK A01 T03590144  RH  028%=      5-min Rain = 0
KST1 092210Z 17017KT 36/14 A3001 RMK A01 T03590143  RH  028%=      5-min Rain = 0
KST1 092215Z 16016G21KT 36/14 A3001 RMK A01 T03580143  RH  028%=      5-min Rain = 0
KST1 092220Z 16017G22KT 36/14 A3001 RMK A01 T03580143  RH  028%=      5-min Rain = 0
KST1 092225Z 15015KT 36/14 A3001 RMK A01 T03580141  RH  028%=      5-min Rain = 0
KST1 092230Z 16017KT 36/14 A3001 RMK A01 T03590139  RH  027%=      5-min Rain = 0
KST1 092235Z 17014G19KT 36/14 A3001 RMK A01 T03580135  RH  027%=      5-min Rain = 0
KST1 092240Z 17017G23KT 36/14 A3001 RMK A01 T03590138  RH  027%=      5-min Rain = 0
KST1 092245Z 17018G23KT 36/14 A30 RMK A01 T03590138  RH  027%=      5-min Rain = 0
KST1 092250Z 16015KT 36/14 A3001 RMK A01 T03590136  RH  027%=      5-min Rain = 0
KST1 092255Z 17017G24KT 36/14 A3001 RMK A01 T03630135  RH  026%=      5-min Rain = 0
KST1 092300Z 17016G23KT 36/14 A30 RMK A01 T03600136  RH  027%=      5-min Rain = 0
KST1 092305Z 17018G23KT 36/14 A30 RMK A01 T03580137  RH  027%=      5-min Rain = 0
KST1 092310Z 18017G23KT 36/13 A30 RMK A01 T03570134  RH  027%=      5-min Rain = 0
KST1 092315Z 17019KT 36/14 A30 RMK A01 T03550137  RH  028%=      5-min Rain = 0
KST1 092320Z 17015KT 36/14 A30 RMK A01 T03580138  RH  027%=      5-min Rain = 0
KST1 092325Z 16019G25KT 36/14 A30 RMK A01 T03580135  RH  027%=      5-min Rain = 0
KST1 092330Z 16015G20KT 35/13 A30 RMK A01 T03510133  RH  028%=      5-min Rain = 0
KST1 092335Z 17015KT 36/13 A30 RMK A01 T03560130  RH  026%=      5-min Rain = 0
KST1 092340Z 17017G22KT 36/13 A30 RMK A01 T03550129  RH  026%=      5-min Rain = 0
KST1 092345Z 16015KT 35/14 A30 RMK A01 T03530135  RH  028%=      5-min Rain = 0
KST1 092350Z 16015KT 35/13 A30 RMK A01 T03500133  RH  028%=      5-min Rain = 0
KST1 092355Z 17014G24KT 35/13 A30 RMK A01 T03530133  RH  027%=      5-min Rain = 0
KST1 100000Z 16017G22KT 35/13 A30 RMK A01 T03500134  RH  028%=      5-min Rain = 0
KST1 100005Z 15017KT 35/13 A30 RMK A01 T03460134  RH  028%=      5-min Rain = 0
KST1 100010Z 16018KT 35/13 A30 RMK A01 T03470130  RH  028%=      5-min Rain = 0
KST1 100015Z 17017KT 35/13 A30 RMK A01 T03470128  RH  027%=      5-min Rain = 0
KST1 100020Z 17018KT 35/13 A30 RMK A01 T03470130  RH  027%=      5-min Rain = 0
KST1 100025Z 16017KT 35/13 A30 RMK A01 T03460130  RH  028%=      5-min Rain = 0
KST1 100030Z 16016KT 35/13 A30 RMK A01 T03460134  RH  029%=      5-min Rain = 0
KST1 100035Z 16019KT 34/13 A30 RMK A01 T03430132  RH  029%=      5-min Rain = 0
KST1 100040Z 16019G24KT 34/13 A3001 RMK A01 T03420130  RH  028%=      5-min Rain = 0
KST1 100045Z 16018KT 34/13 A30 RMK A01 T03390129  RH  029%=      5-min Rain = 0
KST1 100050Z 16018G24KT 34/13 A3001 RMK A01 T03400132  RH  029%=      5-min Rain = 0
KST1 100055Z 16017KT 34/13 A30 RMK A01 T03390133  RH  029%=      5-min Rain = 0
KST1 100100Z 16018KT 34/13 A30 RMK A01 T03370131  RH  029%=      5-min Rain = 0
KST1 100105Z 16016KT 34/13 A30 RMK A01 T03360128  RH  029%=      5-min Rain = 0
KST1 100110Z 17016KT 34/13 A30 RMK A01 T03350126  RH  029%=      5-min Rain = 0
KST1 100115Z 17017KT 33/13 A30 RMK A01 T03340127  RH  029%=      5-min Rain = 0
KST1 100120Z 17017KT 33/12 A30 RMK A01 T03330124  RH  029%=      5-min Rain = 0
KST1 100125Z 17016KT 33/12 A30 RMK A01 T03310123  RH  029%=      5-min Rain = 0
KST1 100130Z 17015KT 33/13 A30 RMK A01 T03300126  RH  030%=      5-min Rain = 0
KST1 100135Z 17016G21KT 33/13 A3001 RMK A01 T03280127  RH  030%=      5-min Rain = 0
KST1 100140Z 17015G20KT 33/13 A3001 RMK A01 T03270128  RH  031%=      5-min Rain = 0
KST1 100145Z 17014G19KT 33/13 A3001 RMK A01 T03260130  RH  031%=      5-min Rain = 0
KST1 100150Z 17013G18KT 32/13 A3001 RMK A01 T03230129  RH  031%=      5-min Rain = 0
KST1 100155Z 17013KT 32/13 A3001 RMK A01 T03230128  RH  031%=      5-min Rain = 0
KST1 100200Z 17013KT 32/13 A3001 RMK A01 T03220128  RH  031%=      5-min Rain = 0
KST1 100205Z 16013KT 32/13 A3001 RMK A01 T03200129  RH  032%=      5-min Rain = 0
KST1 100210Z 16011KT 32/13 A3002 RMK A01 T03170128  RH  032%=      5-min Rain = 0
KST1 100215Z 16012KT 32/13 A3002 RMK A01 T03170131  RH  033%=      5-min Rain = 0
KST1 100220Z 16012KT 32/13 A3002 RMK A01 T03160134  RH  034%=      5-min Rain = 0
KST1 100225Z 16012KT 31/14 A3002 RMK A01 T03140135  RH  034%=      5-min Rain = 0
KST1 100230Z 16012KT 31/14 A3002 RMK A01 T03140137  RH  035%=      5-min Rain = 0
KST1 100235Z 16013KT 31/14 A3003 RMK A01 T03130138  RH  035%=      5-min Rain = 0
KST1 100240Z 16013KT 31/14 A3003 RMK A01 T03120140  RH  036%=      5-min Rain = 0
KST1 100245Z 16012KT 31/14 A3003 RMK A01 T03120141  RH  036%=      5-min Rain = 0
KST1 100250Z 16011KT 31/14 A3003 RMK A01 T03100141  RH  037%=      5-min Rain = 0
KST1 100255Z 16011KT 31/14 A3003 RMK A01 T03090142  RH  037%=      5-min Rain = 0
KST1 100300Z 16012KT 31/14 A3003 RMK A01 T03070142  RH  037%=      5-min Rain = 0
KST1 100305Z 16011KT 31/14 A3004 RMK A01 T03060142  RH  038%=      5-min Rain = 0
KST1 100310Z 16012KT 31/14 A3004 RMK A01 T03050143  RH  038%=      5-min Rain = 0
KST1 100315Z 16011KT 30/14 A3004 RMK A01 T03040143  RH  038%=      5-min Rain = 0
KST1 100320Z 16011KT 30/14 A3004 RMK A01 T03040144  RH  039%=      5-min Rain = 0
KST1 100325Z 16011KT 30/14 A3004 RMK A01 T03030144  RH  039%=      5-min Rain = 0
KST1 100330Z 16012KT 30/15 A3004 RMK A01 T03020145  RH  039%=      5-min Rain = 0
KST1 100335Z 16012KT 30/15 A3004 RMK A01 T03020146  RH  039%=      5-min Rain = 0
KST1 100340Z 16012KT 30/15 A3005 RMK A01 T03000145  RH  040%=      5-min Rain = 0
KST1 100345Z 16012KT 30/15 A3005 RMK A01 T03000146  RH  040%=      5-min Rain = 0
KST1 100350Z 16012KT 30/15 A3005 RMK A01 T02990146  RH  040%=      5-min Rain = 0
KST1 100355Z 16012KT 30/15 A3005 RMK A01 T02990146  RH  040%=      5-min Rain = 0
KST1 100400Z 16011KT 30/15 A3005 RMK A01 T02970146  RH  041%=      5-min Rain = 0
KST1 100405Z 16011KT 30/15 A3005 RMK A01 T02960145  RH  041%=      5-min Rain = 0
KST1 100410Z 16012KT 30/15 A3005 RMK A01 T02950146  RH  041%=      5-min Rain = 0
KST1 100415Z 16012G17KT 30/15 A3005 RMK A01 T02950146  RH  041%=      5-min Rain = 0
KST1 100420Z 16013KT 29/15 A3004 RMK A01 T02940146  RH  041%=      5-min Rain = 0
KST1 100425Z 16012KT 29/15 A3004 RMK A01 T02930146  RH  041%=      5-min Rain = 0
KST1 100430Z 16013KT 29/15 A3004 RMK A01 T02930145  RH  041%=      5-min Rain = 0
KST1 100435Z 16013KT 29/15 A3004 RMK A01 T02930145  RH  041%=      5-min Rain = 0
KST1 100440Z 16011KT 29/15 A3004 RMK A01 T02910145  RH  042%=      5-min Rain = 0
KST1 100445Z 16011KT 29/14 A3004 RMK A01 T02900144  RH  042%=      5-min Rain = 0
KST1 100450Z 16012KT 29/14 A3004 RMK A01 T02900144  RH  042%=      5-min Rain = 0
KST1 100455Z 16011KT 29/14 A3004 RMK A01 T02890143  RH  042%=      5-min Rain = 0

Page generated in 0.0093 seconds.